<?xml version="1.0" encoding="UTF-8"?>
<gpx creator="Wikiloc - https://www.wikiloc.com" version="1.1" xmlns="http://www.topografix.com/GPX/1/1" xmlns:xsi="http://www.w3.org/2001/XMLSchema-instance" xsi:schemaLocation="http://www.topografix.com/GPX/1/1 http://www.topografix.com/GPX/1/1/gpx.xsd">
  <metadata>
    <name>Wikiloc - Monumento Natural LAS TUERCES desde Mave hasta Villaescusa d...</name>
    <link href="https://www.wikiloc.com/hiking-trails/monumento-natural-las-tuerces-desde-mave-hasta-villaescusa-de-las-torres-por-el-canon-de-la-horadad-139914267">
      <text>Monumento Natural LAS TUERCES desde Mave hasta Villaescusa d... on Wikiloc</text>
    </link>
    <time>2023-07-04T16:58:18Z</time>
  </metadata>
  <trk>
    <name>Monumento Natural LAS TUERCES desde Mave hasta Villaescusa d... - Wikiloc</name>
    <cmt></cmt>
    <desc></desc>
    <trkseg>
      <trkpt lat="42.737281" lon="-4.274303">
        <ele>889.494</ele>
        <time>2023-07-04T10:32:54Z</time>
      </trkpt>
      <trkpt lat="42.737435" lon="-4.274509">
        <ele>889.157</ele>
        <time>2023-07-04T10:33:37Z</time>
      </trkpt>
      <trkpt lat="42.737909" lon="-4.274668">
        <ele>891.622</ele>
        <time>2023-07-04T10:34:23Z</time>
      </trkpt>
      <trkpt lat="42.737992" lon="-4.274540">
        <ele>889.209</ele>
        <time>2023-07-04T10:34:47Z</time>
      </trkpt>
      <trkpt lat="42.738177" lon="-4.274743">
        <ele>884.680</ele>
        <time>2023-07-04T10:35:26Z</time>
      </trkpt>
      <trkpt lat="42.739138" lon="-4.274414">
        <ele>892.682</ele>
        <time>2023-07-04T10:37:33Z</time>
      </trkpt>
      <trkpt lat="42.740191" lon="-4.274379">
        <ele>895.298</ele>
        <time>2023-07-04T10:39:03Z</time>
      </trkpt>
      <trkpt lat="42.741262" lon="-4.273794">
        <ele>887.738</ele>
        <time>2023-07-04T10:40:52Z</time>
      </trkpt>
      <trkpt lat="42.742135" lon="-4.272706">
        <ele>884.420</ele>
        <time>2023-07-04T10:43:21Z</time>
      </trkpt>
      <trkpt lat="42.743047" lon="-4.271821">
        <ele>895.213</ele>
        <time>2023-07-04T10:44:53Z</time>
      </trkpt>
      <trkpt lat="42.743732" lon="-4.270613">
        <ele>888.731</ele>
        <time>2023-07-04T10:46:30Z</time>
      </trkpt>
      <trkpt lat="42.744409" lon="-4.270150">
        <ele>889.035</ele>
        <time>2023-07-04T10:47:50Z</time>
      </trkpt>
      <trkpt lat="42.745134" lon="-4.269284">
        <ele>891.576</ele>
        <time>2023-07-04T10:49:56Z</time>
      </trkpt>
      <trkpt lat="42.745568" lon="-4.268494">
        <ele>888.492</ele>
        <time>2023-07-04T10:51:38Z</time>
      </trkpt>
      <trkpt lat="42.745762" lon="-4.268439">
        <ele>898.273</ele>
        <time>2023-07-04T10:52:30Z</time>
      </trkpt>
      <trkpt lat="42.745711" lon="-4.268275">
        <ele>898.420</ele>
        <time>2023-07-04T10:52:33Z</time>
      </trkpt>
      <trkpt lat="42.745845" lon="-4.268131">
        <ele>895.509</ele>
        <time>2023-07-04T10:52:55Z</time>
      </trkpt>
      <trkpt lat="42.746495" lon="-4.268168">
        <ele>896.170</ele>
        <time>2023-07-04T10:56:52Z</time>
      </trkpt>
      <trkpt lat="42.746601" lon="-4.268282">
        <ele>890.362</ele>
        <time>2023-07-04T10:57:56Z</time>
      </trkpt>
      <trkpt lat="42.746573" lon="-4.268173">
        <ele>890.638</ele>
        <time>2023-07-04T11:00:03Z</time>
      </trkpt>
      <trkpt lat="42.746796" lon="-4.268105">
        <ele>893.298</ele>
        <time>2023-07-04T11:00:32Z</time>
      </trkpt>
      <trkpt lat="42.746872" lon="-4.267937">
        <ele>893.640</ele>
        <time>2023-07-04T11:00:50Z</time>
      </trkpt>
      <trkpt lat="42.746828" lon="-4.268118">
        <ele>892.853</ele>
        <time>2023-07-04T11:01:50Z</time>
      </trkpt>
      <trkpt lat="42.747025" lon="-4.268291">
        <ele>898.851</ele>
        <time>2023-07-04T11:02:32Z</time>
      </trkpt>
      <trkpt lat="42.747101" lon="-4.268136">
        <ele>899.795</ele>
        <time>2023-07-04T11:03:37Z</time>
      </trkpt>
      <trkpt lat="42.747393" lon="-4.268591">
        <ele>898.726</ele>
        <time>2023-07-04T11:05:20Z</time>
      </trkpt>
      <trkpt lat="42.747300" lon="-4.268851">
        <ele>901.797</ele>
        <time>2023-07-04T11:06:38Z</time>
      </trkpt>
      <trkpt lat="42.747190" lon="-4.268810">
        <ele>898.423</ele>
        <time>2023-07-04T11:06:47Z</time>
      </trkpt>
      <trkpt lat="42.747557" lon="-4.268767">
        <ele>903.525</ele>
        <time>2023-07-04T11:06:55Z</time>
      </trkpt>
      <trkpt lat="42.747479" lon="-4.268521">
        <ele>906.509</ele>
        <time>2023-07-04T11:07:22Z</time>
      </trkpt>
      <trkpt lat="42.747604" lon="-4.268508">
        <ele>907.580</ele>
        <time>2023-07-04T11:07:50Z</time>
      </trkpt>
      <trkpt lat="42.747833" lon="-4.269128">
        <ele>902.382</ele>
        <time>2023-07-04T11:09:19Z</time>
      </trkpt>
      <trkpt lat="42.748054" lon="-4.268930">
        <ele>904.998</ele>
        <time>2023-07-04T11:11:33Z</time>
      </trkpt>
      <trkpt lat="42.748331" lon="-4.269258">
        <ele>906.128</ele>
        <time>2023-07-04T11:12:30Z</time>
      </trkpt>
      <trkpt lat="42.748430" lon="-4.269055">
        <ele>909.970</ele>
        <time>2023-07-04T11:12:59Z</time>
      </trkpt>
      <trkpt lat="42.748758" lon="-4.270040">
        <ele>920.733</ele>
        <time>2023-07-04T11:14:46Z</time>
      </trkpt>
      <trkpt lat="42.748911" lon="-4.269922">
        <ele>921.861</ele>
        <time>2023-07-04T11:15:44Z</time>
      </trkpt>
      <trkpt lat="42.749517" lon="-4.270517">
        <ele>932.085</ele>
        <time>2023-07-04T11:17:36Z</time>
      </trkpt>
      <trkpt lat="42.749510" lon="-4.270648">
        <ele>932.816</ele>
        <time>2023-07-04T11:17:46Z</time>
      </trkpt>
      <trkpt lat="42.749894" lon="-4.270526">
        <ele>935.067</ele>
        <time>2023-07-04T11:19:18Z</time>
      </trkpt>
      <trkpt lat="42.750122" lon="-4.270695">
        <ele>935.581</ele>
        <time>2023-07-04T11:19:50Z</time>
      </trkpt>
      <trkpt lat="42.750374" lon="-4.271040">
        <ele>938.119</ele>
        <time>2023-07-04T11:20:42Z</time>
      </trkpt>
      <trkpt lat="42.750726" lon="-4.271273">
        <ele>935.909</ele>
        <time>2023-07-04T11:21:35Z</time>
      </trkpt>
      <trkpt lat="42.751258" lon="-4.272170">
        <ele>939.827</ele>
        <time>2023-07-04T11:23:24Z</time>
      </trkpt>
      <trkpt lat="42.751520" lon="-4.272332">
        <ele>941.719</ele>
        <time>2023-07-04T11:23:52Z</time>
      </trkpt>
      <trkpt lat="42.751466" lon="-4.272555">
        <ele>940.275</ele>
        <time>2023-07-04T11:24:17Z</time>
      </trkpt>
      <trkpt lat="42.751564" lon="-4.272322">
        <ele>942.895</ele>
        <time>2023-07-04T11:26:48Z</time>
      </trkpt>
      <trkpt lat="42.751817" lon="-4.272556">
        <ele>943.737</ele>
        <time>2023-07-04T11:27:26Z</time>
      </trkpt>
      <trkpt lat="42.752333" lon="-4.272575">
        <ele>942.510</ele>
        <time>2023-07-04T11:28:35Z</time>
      </trkpt>
      <trkpt lat="42.752550" lon="-4.272850">
        <ele>946.868</ele>
        <time>2023-07-04T11:29:03Z</time>
      </trkpt>
      <trkpt lat="42.752781" lon="-4.272908">
        <ele>947.722</ele>
        <time>2023-07-04T11:29:35Z</time>
      </trkpt>
      <trkpt lat="42.753076" lon="-4.272876">
        <ele>949.513</ele>
        <time>2023-07-04T11:30:04Z</time>
      </trkpt>
      <trkpt lat="42.753208" lon="-4.272600">
        <ele>951.529</ele>
        <time>2023-07-04T11:32:13Z</time>
      </trkpt>
      <trkpt lat="42.753397" lon="-4.272517">
        <ele>951.100</ele>
        <time>2023-07-04T11:32:34Z</time>
      </trkpt>
      <trkpt lat="42.753939" lon="-4.272450">
        <ele>950.420</ele>
        <time>2023-07-04T11:33:50Z</time>
      </trkpt>
      <trkpt lat="42.754048" lon="-4.272290">
        <ele>951.409</ele>
        <time>2023-07-04T11:34:41Z</time>
      </trkpt>
      <trkpt lat="42.754123" lon="-4.272374">
        <ele>951.393</ele>
        <time>2023-07-04T11:34:56Z</time>
      </trkpt>
      <trkpt lat="42.754294" lon="-4.271888">
        <ele>949.895</ele>
        <time>2023-07-04T11:37:21Z</time>
      </trkpt>
      <trkpt lat="42.754580" lon="-4.271826">
        <ele>948.711</ele>
        <time>2023-07-04T11:38:01Z</time>
      </trkpt>
      <trkpt lat="42.755077" lon="-4.271263">
        <ele>950.021</ele>
        <time>2023-07-04T11:39:45Z</time>
      </trkpt>
      <trkpt lat="42.755238" lon="-4.271356">
        <ele>946.993</ele>
        <time>2023-07-04T11:40:09Z</time>
      </trkpt>
      <trkpt lat="42.755102" lon="-4.271319">
        <ele>945.946</ele>
        <time>2023-07-04T11:41:15Z</time>
      </trkpt>
      <trkpt lat="42.755175" lon="-4.271210">
        <ele>936.524</ele>
        <time>2023-07-04T11:41:21Z</time>
      </trkpt>
      <trkpt lat="42.755671" lon="-4.271006">
        <ele>941.228</ele>
        <time>2023-07-04T11:42:00Z</time>
      </trkpt>
      <trkpt lat="42.756427" lon="-4.270337">
        <ele>946.079</ele>
        <time>2023-07-04T11:43:58Z</time>
      </trkpt>
      <trkpt lat="42.756633" lon="-4.270543">
        <ele>944.522</ele>
        <time>2023-07-04T11:45:40Z</time>
      </trkpt>
      <trkpt lat="42.756625" lon="-4.270356">
        <ele>944.362</ele>
        <time>2023-07-04T11:45:49Z</time>
      </trkpt>
      <trkpt lat="42.756886" lon="-4.269967">
        <ele>945.308</ele>
        <time>2023-07-04T11:46:34Z</time>
      </trkpt>
      <trkpt lat="42.756889" lon="-4.269649">
        <ele>943.909</ele>
        <time>2023-07-04T11:47:01Z</time>
      </trkpt>
      <trkpt lat="42.756544" lon="-4.269351">
        <ele>939.743</ele>
        <time>2023-07-04T11:48:24Z</time>
      </trkpt>
      <trkpt lat="42.756413" lon="-4.269012">
        <ele>935.065</ele>
        <time>2023-07-04T11:49:46Z</time>
      </trkpt>
      <trkpt lat="42.756814" lon="-4.267698">
        <ele>922.971</ele>
        <time>2023-07-04T11:52:26Z</time>
      </trkpt>
      <trkpt lat="42.756817" lon="-4.266806">
        <ele>911.991</ele>
        <time>2023-07-04T11:53:32Z</time>
      </trkpt>
      <trkpt lat="42.757077" lon="-4.265738">
        <ele>906.663</ele>
        <time>2023-07-04T11:55:32Z</time>
      </trkpt>
      <trkpt lat="42.756988" lon="-4.265256">
        <ele>901.366</ele>
        <time>2023-07-04T11:57:39Z</time>
      </trkpt>
      <trkpt lat="42.757471" lon="-4.264980">
        <ele>892.314</ele>
        <time>2023-07-04T11:59:56Z</time>
      </trkpt>
      <trkpt lat="42.757393" lon="-4.264694">
        <ele>893.528</ele>
        <time>2023-07-04T12:01:56Z</time>
      </trkpt>
      <trkpt lat="42.757836" lon="-4.264091">
        <ele>892.619</ele>
        <time>2023-07-04T12:03:20Z</time>
      </trkpt>
      <trkpt lat="42.757941" lon="-4.263421">
        <ele>890.039</ele>
        <time>2023-07-04T12:04:27Z</time>
      </trkpt>
      <trkpt lat="42.757941" lon="-4.263057">
        <ele>890.001</ele>
        <time>2023-07-04T12:05:39Z</time>
      </trkpt>
      <trkpt lat="42.757502" lon="-4.262599">
        <ele>888.921</ele>
        <time>2023-07-04T12:06:29Z</time>
      </trkpt>
      <trkpt lat="42.757331" lon="-4.262173">
        <ele>892.809</ele>
        <time>2023-07-04T12:07:12Z</time>
      </trkpt>
      <trkpt lat="42.757230" lon="-4.262470">
        <ele>893.784</ele>
        <time>2023-07-04T12:07:46Z</time>
      </trkpt>
      <trkpt lat="42.757099" lon="-4.262365">
        <ele>896.276</ele>
        <time>2023-07-04T12:09:09Z</time>
      </trkpt>
      <trkpt lat="42.757619" lon="-4.260735">
        <ele>901.712</ele>
        <time>2023-07-04T12:12:01Z</time>
      </trkpt>
      <trkpt lat="42.757515" lon="-4.259874">
        <ele>898.812</ele>
        <time>2023-07-04T12:13:06Z</time>
      </trkpt>
      <trkpt lat="42.757876" lon="-4.258011">
        <ele>901.184</ele>
        <time>2023-07-04T12:15:24Z</time>
      </trkpt>
      <trkpt lat="42.757733" lon="-4.257366">
        <ele>902.747</ele>
        <time>2023-07-04T12:16:42Z</time>
      </trkpt>
      <trkpt lat="42.757808" lon="-4.257044">
        <ele>903.965</ele>
        <time>2023-07-04T12:17:07Z</time>
      </trkpt>
      <trkpt lat="42.757681" lon="-4.256946">
        <ele>904.789</ele>
        <time>2023-07-04T12:17:21Z</time>
      </trkpt>
      <trkpt lat="42.757727" lon="-4.255793">
        <ele>899.440</ele>
        <time>2023-07-04T12:18:41Z</time>
      </trkpt>
      <trkpt lat="42.758208" lon="-4.254072">
        <ele>901.145</ele>
        <time>2023-07-04T12:21:23Z</time>
      </trkpt>
      <trkpt lat="42.758258" lon="-4.253106">
        <ele>899.547</ele>
        <time>2023-07-04T12:22:22Z</time>
      </trkpt>
      <trkpt lat="42.758440" lon="-4.252529">
        <ele>897.911</ele>
        <time>2023-07-04T12:23:14Z</time>
      </trkpt>
      <trkpt lat="42.758258" lon="-4.251329">
        <ele>905.409</ele>
        <time>2023-07-04T12:24:28Z</time>
      </trkpt>
      <trkpt lat="42.758079" lon="-4.251099">
        <ele>906.945</ele>
        <time>2023-07-04T12:25:00Z</time>
      </trkpt>
      <trkpt lat="42.758028" lon="-4.250163">
        <ele>907.647</ele>
        <time>2023-07-04T12:25:55Z</time>
      </trkpt>
      <trkpt lat="42.757916" lon="-4.250093">
        <ele>908.583</ele>
        <time>2023-07-04T12:26:11Z</time>
      </trkpt>
      <trkpt lat="42.758079" lon="-4.250077">
        <ele>909.183</ele>
        <time>2023-07-04T12:26:27Z</time>
      </trkpt>
      <trkpt lat="42.758159" lon="-4.249681">
        <ele>907.555</ele>
        <time>2023-07-04T12:27:02Z</time>
      </trkpt>
      <trkpt lat="42.757563" lon="-4.247900">
        <ele>914.928</ele>
        <time>2023-07-04T12:30:17Z</time>
      </trkpt>
      <trkpt lat="42.757191" lon="-4.247385">
        <ele>913.876</ele>
        <time>2023-07-04T12:32:15Z</time>
      </trkpt>
      <trkpt lat="42.757215" lon="-4.246613">
        <ele>918.910</ele>
        <time>2023-07-04T12:33:04Z</time>
      </trkpt>
      <trkpt lat="42.756877" lon="-4.244509">
        <ele>920.521</ele>
        <time>2023-07-04T12:35:01Z</time>
      </trkpt>
      <trkpt lat="42.756376" lon="-4.243572">
        <ele>923.563</ele>
        <time>2023-07-04T12:36:03Z</time>
      </trkpt>
      <trkpt lat="42.756097" lon="-4.243295">
        <ele>921.744</ele>
        <time>2023-07-04T12:37:34Z</time>
      </trkpt>
      <trkpt lat="42.755081" lon="-4.243256">
        <ele>927.118</ele>
        <time>2023-07-04T12:39:43Z</time>
      </trkpt>
      <trkpt lat="42.754456" lon="-4.243602">
        <ele>928.009</ele>
        <time>2023-07-04T12:40:36Z</time>
      </trkpt>
      <trkpt lat="42.754222" lon="-4.243499">
        <ele>923.937</ele>
        <time>2023-07-04T12:40:56Z</time>
      </trkpt>
      <trkpt lat="42.754479" lon="-4.244091">
        <ele>938.379</ele>
        <time>2023-07-04T12:41:59Z</time>
      </trkpt>
      <trkpt lat="42.754541" lon="-4.244670">
        <ele>947.125</ele>
        <time>2023-07-04T12:42:55Z</time>
      </trkpt>
      <trkpt lat="42.754441" lon="-4.244966">
        <ele>953.375</ele>
        <time>2023-07-04T12:43:18Z</time>
      </trkpt>
      <trkpt lat="42.754032" lon="-4.245236">
        <ele>957.227</ele>
        <time>2023-07-04T12:43:56Z</time>
      </trkpt>
      <trkpt lat="42.753950" lon="-4.245459">
        <ele>959.090</ele>
        <time>2023-07-04T12:44:13Z</time>
      </trkpt>
      <trkpt lat="42.754177" lon="-4.245506">
        <ele>961.168</ele>
        <time>2023-07-04T12:44:33Z</time>
      </trkpt>
      <trkpt lat="42.755346" lon="-4.244783">
        <ele>973.782</ele>
        <time>2023-07-04T12:46:51Z</time>
      </trkpt>
      <trkpt lat="42.755531" lon="-4.244851">
        <ele>975.693</ele>
        <time>2023-07-04T12:47:09Z</time>
      </trkpt>
      <trkpt lat="42.755449" lon="-4.246493">
        <ele>989.558</ele>
        <time>2023-07-04T12:48:52Z</time>
      </trkpt>
      <trkpt lat="42.755700" lon="-4.247321">
        <ele>989.952</ele>
        <time>2023-07-04T12:55:46Z</time>
      </trkpt>
      <trkpt lat="42.755473" lon="-4.247251">
        <ele>991.717</ele>
        <time>2023-07-04T12:56:43Z</time>
      </trkpt>
      <trkpt lat="42.755468" lon="-4.247733">
        <ele>988.709</ele>
        <time>2023-07-04T12:57:34Z</time>
      </trkpt>
      <trkpt lat="42.755324" lon="-4.247551">
        <ele>988.726</ele>
        <time>2023-07-04T12:58:38Z</time>
      </trkpt>
      <trkpt lat="42.755011" lon="-4.248132">
        <ele>985.288</ele>
        <time>2023-07-04T12:59:29Z</time>
      </trkpt>
      <trkpt lat="42.754720" lon="-4.248294">
        <ele>983.154</ele>
        <time>2023-07-04T13:00:34Z</time>
      </trkpt>
      <trkpt lat="42.754454" lon="-4.248692">
        <ele>983.934</ele>
        <time>2023-07-04T13:01:28Z</time>
      </trkpt>
      <trkpt lat="42.754288" lon="-4.248617">
        <ele>989.916</ele>
        <time>2023-07-04T13:01:56Z</time>
      </trkpt>
      <trkpt lat="42.754357" lon="-4.249363">
        <ele>999.839</ele>
        <time>2023-07-04T13:03:01Z</time>
      </trkpt>
      <trkpt lat="42.754141" lon="-4.249769">
        <ele>1002.457</ele>
        <time>2023-07-04T13:03:44Z</time>
      </trkpt>
      <trkpt lat="42.753729" lon="-4.249796">
        <ele>1004.831</ele>
        <time>2023-07-04T13:04:45Z</time>
      </trkpt>
      <trkpt lat="42.753495" lon="-4.250304">
        <ele>1010.942</ele>
        <time>2023-07-04T13:05:28Z</time>
      </trkpt>
      <trkpt lat="42.753149" lon="-4.250652">
        <ele>1010.193</ele>
        <time>2023-07-04T13:06:33Z</time>
      </trkpt>
      <trkpt lat="42.752490" lon="-4.252325">
        <ele>1019.665</ele>
        <time>2023-07-04T13:08:58Z</time>
      </trkpt>
      <trkpt lat="42.752777" lon="-4.252670">
        <ele>1023.921</ele>
        <time>2023-07-04T13:09:38Z</time>
      </trkpt>
      <trkpt lat="42.752697" lon="-4.252918">
        <ele>1028.509</ele>
        <time>2023-07-04T13:10:03Z</time>
      </trkpt>
      <trkpt lat="42.752784" lon="-4.253149">
        <ele>1035.050</ele>
        <time>2023-07-04T13:10:25Z</time>
      </trkpt>
      <trkpt lat="42.752491" lon="-4.253972">
        <ele>1044.472</ele>
        <time>2023-07-04T13:12:31Z</time>
      </trkpt>
      <trkpt lat="42.752100" lon="-4.254249">
        <ele>1050.188</ele>
        <time>2023-07-04T13:13:26Z</time>
      </trkpt>
      <trkpt lat="42.752175" lon="-4.254173">
        <ele>1050.188</ele>
        <time>2023-07-04T13:14:27Z</time>
      </trkpt>
      <trkpt lat="42.752088" lon="-4.254017">
        <ele>1048.280</ele>
        <time>2023-07-04T13:14:41Z</time>
      </trkpt>
      <trkpt lat="42.751740" lon="-4.254123">
        <ele>1055.023</ele>
        <time>2023-07-04T13:16:00Z</time>
      </trkpt>
      <trkpt lat="42.751615" lon="-4.254015">
        <ele>1049.091</ele>
        <time>2023-07-04T13:20:46Z</time>
      </trkpt>
      <trkpt lat="42.751475" lon="-4.254194">
        <ele>1047.665</ele>
        <time>2023-07-04T13:21:29Z</time>
      </trkpt>
      <trkpt lat="42.751452" lon="-4.254529">
        <ele>1048.826</ele>
        <time>2023-07-04T13:21:54Z</time>
      </trkpt>
      <trkpt lat="42.751769" lon="-4.255112">
        <ele>1054.684</ele>
        <time>2023-07-04T13:23:07Z</time>
      </trkpt>
      <trkpt lat="42.752388" lon="-4.255384">
        <ele>1054.507</ele>
        <time>2023-07-04T13:24:42Z</time>
      </trkpt>
      <trkpt lat="42.752420" lon="-4.255643">
        <ele>1058.617</ele>
        <time>2023-07-04T13:25:13Z</time>
      </trkpt>
      <trkpt lat="42.752654" lon="-4.255665">
        <ele>1059.809</ele>
        <time>2023-07-04T13:25:50Z</time>
      </trkpt>
      <trkpt lat="42.752936" lon="-4.255936">
        <ele>1058.839</ele>
        <time>2023-07-04T13:26:32Z</time>
      </trkpt>
      <trkpt lat="42.752904" lon="-4.256258">
        <ele>1057.891</ele>
        <time>2023-07-04T13:27:04Z</time>
      </trkpt>
      <trkpt lat="42.753055" lon="-4.256387">
        <ele>1058.637</ele>
        <time>2023-07-04T13:27:32Z</time>
      </trkpt>
      <trkpt lat="42.753108" lon="-4.256880">
        <ele>1059.457</ele>
        <time>2023-07-04T13:28:16Z</time>
      </trkpt>
      <trkpt lat="42.753906" lon="-4.257153">
        <ele>1055.959</ele>
        <time>2023-07-04T13:30:13Z</time>
      </trkpt>
      <trkpt lat="42.754034" lon="-4.257239">
        <ele>1055.562</ele>
        <time>2023-07-04T13:30:43Z</time>
      </trkpt>
      <trkpt lat="42.754020" lon="-4.257427">
        <ele>1055.580</ele>
        <time>2023-07-04T13:31:00Z</time>
      </trkpt>
      <trkpt lat="42.754075" lon="-4.257218">
        <ele>1060.254</ele>
        <time>2023-07-04T13:36:25Z</time>
      </trkpt>
      <trkpt lat="42.754326" lon="-4.257920">
        <ele>1058.495</ele>
        <time>2023-07-04T13:37:54Z</time>
      </trkpt>
      <trkpt lat="42.754432" lon="-4.259091">
        <ele>1064.968</ele>
        <time>2023-07-04T13:40:25Z</time>
      </trkpt>
      <trkpt lat="42.754715" lon="-4.259376">
        <ele>1066.242</ele>
        <time>2023-07-04T13:41:38Z</time>
      </trkpt>
      <trkpt lat="42.754958" lon="-4.259408">
        <ele>1067.126</ele>
        <time>2023-07-04T13:42:03Z</time>
      </trkpt>
      <trkpt lat="42.755092" lon="-4.259018">
        <ele>1064.809</ele>
        <time>2023-07-04T13:43:13Z</time>
      </trkpt>
      <trkpt lat="42.755380" lon="-4.259088">
        <ele>1065.247</ele>
        <time>2023-07-04T13:43:56Z</time>
      </trkpt>
      <trkpt lat="42.755407" lon="-4.258911">
        <ele>1068.149</ele>
        <time>2023-07-04T13:44:33Z</time>
      </trkpt>
      <trkpt lat="42.755580" lon="-4.258787">
        <ele>1067.655</ele>
        <time>2023-07-04T13:45:43Z</time>
      </trkpt>
      <trkpt lat="42.755437" lon="-4.258841">
        <ele>1062.155</ele>
        <time>2023-07-04T13:47:59Z</time>
      </trkpt>
      <trkpt lat="42.755392" lon="-4.259098">
        <ele>1063.217</ele>
        <time>2023-07-04T13:48:33Z</time>
      </trkpt>
      <trkpt lat="42.755254" lon="-4.259043">
        <ele>1064.150</ele>
        <time>2023-07-04T13:49:03Z</time>
      </trkpt>
      <trkpt lat="42.755260" lon="-4.258428">
        <ele>1059.788</ele>
        <time>2023-07-04T13:49:47Z</time>
      </trkpt>
      <trkpt lat="42.755693" lon="-4.257237">
        <ele>1044.762</ele>
        <time>2023-07-04T13:51:11Z</time>
      </trkpt>
      <trkpt lat="42.755817" lon="-4.257243">
        <ele>1045.163</ele>
        <time>2023-07-04T13:51:39Z</time>
      </trkpt>
      <trkpt lat="42.755921" lon="-4.256962">
        <ele>1043.381</ele>
        <time>2023-07-04T13:52:20Z</time>
      </trkpt>
      <trkpt lat="42.755791" lon="-4.257079">
        <ele>1039.661</ele>
        <time>2023-07-04T13:53:25Z</time>
      </trkpt>
      <trkpt lat="42.755683" lon="-4.256875">
        <ele>1037.117</ele>
        <time>2023-07-04T13:53:56Z</time>
      </trkpt>
      <trkpt lat="42.755868" lon="-4.256383">
        <ele>1027.609</ele>
        <time>2023-07-04T13:55:09Z</time>
      </trkpt>
      <trkpt lat="42.755850" lon="-4.256197">
        <ele>1021.429</ele>
        <time>2023-07-04T13:56:10Z</time>
      </trkpt>
      <trkpt lat="42.755698" lon="-4.256384">
        <ele>1023.421</ele>
        <time>2023-07-04T13:57:40Z</time>
      </trkpt>
      <trkpt lat="42.755733" lon="-4.256248">
        <ele>1027.187</ele>
        <time>2023-07-04T13:58:10Z</time>
      </trkpt>
      <trkpt lat="42.756000" lon="-4.255947">
        <ele>1027.337</ele>
        <time>2023-07-04T14:00:01Z</time>
      </trkpt>
      <trkpt lat="42.756216" lon="-4.256057">
        <ele>1034.089</ele>
        <time>2023-07-04T14:00:27Z</time>
      </trkpt>
      <trkpt lat="42.755970" lon="-4.256192">
        <ele>1032.012</ele>
        <time>2023-07-04T14:01:54Z</time>
      </trkpt>
      <trkpt lat="42.756022" lon="-4.256035">
        <ele>1031.980</ele>
        <time>2023-07-04T14:02:51Z</time>
      </trkpt>
      <trkpt lat="42.755841" lon="-4.255970">
        <ele>1031.524</ele>
        <time>2023-07-04T14:03:14Z</time>
      </trkpt>
      <trkpt lat="42.755794" lon="-4.255766">
        <ele>1028.465</ele>
        <time>2023-07-04T14:03:30Z</time>
      </trkpt>
      <trkpt lat="42.755820" lon="-4.254441">
        <ele>1011.561</ele>
        <time>2023-07-04T14:05:02Z</time>
      </trkpt>
      <trkpt lat="42.755938" lon="-4.253896">
        <ele>1000.021</ele>
        <time>2023-07-04T14:05:47Z</time>
      </trkpt>
      <trkpt lat="42.756096" lon="-4.253526">
        <ele>993.813</ele>
        <time>2023-07-04T14:06:15Z</time>
      </trkpt>
      <trkpt lat="42.756368" lon="-4.253427">
        <ele>984.809</ele>
        <time>2023-07-04T14:06:40Z</time>
      </trkpt>
      <trkpt lat="42.756692" lon="-4.253018">
        <ele>973.837</ele>
        <time>2023-07-04T14:07:18Z</time>
      </trkpt>
      <trkpt lat="42.756812" lon="-4.252477">
        <ele>967.579</ele>
        <time>2023-07-04T14:08:07Z</time>
      </trkpt>
      <trkpt lat="42.757117" lon="-4.252325">
        <ele>961.845</ele>
        <time>2023-07-04T14:09:12Z</time>
      </trkpt>
      <trkpt lat="42.757170" lon="-4.251472">
        <ele>951.325</ele>
        <time>2023-07-04T14:10:10Z</time>
      </trkpt>
      <trkpt lat="42.757583" lon="-4.250947">
        <ele>934.597</ele>
        <time>2023-07-04T14:11:29Z</time>
      </trkpt>
      <trkpt lat="42.757551" lon="-4.250274">
        <ele>921.110</ele>
        <time>2023-07-04T14:13:06Z</time>
      </trkpt>
      <trkpt lat="42.758158" lon="-4.250034">
        <ele>907.448</ele>
        <time>2023-07-04T14:14:17Z</time>
      </trkpt>
      <trkpt lat="42.758267" lon="-4.249207">
        <ele>902.482</ele>
        <time>2023-07-04T14:15:17Z</time>
      </trkpt>
      <trkpt lat="42.758683" lon="-4.249006">
        <ele>901.273</ele>
        <time>2023-07-04T14:17:14Z</time>
      </trkpt>
      <trkpt lat="42.759131" lon="-4.251123">
        <ele>895.571</ele>
        <time>2023-07-04T14:19:15Z</time>
      </trkpt>
      <trkpt lat="42.759288" lon="-4.251065">
        <ele>891.641</ele>
        <time>2023-07-04T14:20:00Z</time>
      </trkpt>
      <trkpt lat="42.759183" lon="-4.250930">
        <ele>894.315</ele>
        <time>2023-07-04T14:22:00Z</time>
      </trkpt>
      <trkpt lat="42.759291" lon="-4.253149">
        <ele>891.109</ele>
        <time>2023-07-04T14:57:59Z</time>
      </trkpt>
      <trkpt lat="42.759356" lon="-4.253098">
        <ele>890.848</ele>
        <time>2023-07-04T14:58:22Z</time>
      </trkpt>
      <trkpt lat="42.759424" lon="-4.253282">
        <ele>890.110</ele>
        <time>2023-07-04T14:58:34Z</time>
      </trkpt>
      <trkpt lat="42.759532" lon="-4.254084">
        <ele>882.966</ele>
        <time>2023-07-04T15:00:07Z</time>
      </trkpt>
      <trkpt lat="42.759484" lon="-4.254622">
        <ele>878.696</ele>
        <time>2023-07-04T15:00:39Z</time>
      </trkpt>
      <trkpt lat="42.760150" lon="-4.255066">
        <ele>881.288</ele>
        <time>2023-07-04T15:01:44Z</time>
      </trkpt>
      <trkpt lat="42.760328" lon="-4.255313">
        <ele>881.591</ele>
        <time>2023-07-04T15:02:18Z</time>
      </trkpt>
      <trkpt lat="42.760150" lon="-4.255221">
        <ele>879.779</ele>
        <time>2023-07-04T15:02:35Z</time>
      </trkpt>
      <trkpt lat="42.759348" lon="-4.256855">
        <ele>875.353</ele>
        <time>2023-07-04T15:04:41Z</time>
      </trkpt>
      <trkpt lat="42.758789" lon="-4.257549">
        <ele>875.474</ele>
        <time>2023-07-04T15:05:35Z</time>
      </trkpt>
      <trkpt lat="42.758569" lon="-4.258098">
        <ele>870.583</ele>
        <time>2023-07-04T15:06:11Z</time>
      </trkpt>
      <trkpt lat="42.758662" lon="-4.259474">
        <ele>867.525</ele>
        <time>2023-07-04T15:07:28Z</time>
      </trkpt>
      <trkpt lat="42.759283" lon="-4.260815">
        <ele>873.517</ele>
        <time>2023-07-04T15:09:03Z</time>
      </trkpt>
      <trkpt lat="42.758974" lon="-4.263597">
        <ele>875.309</ele>
        <time>2023-07-04T15:14:12Z</time>
      </trkpt>
      <trkpt lat="42.757945" lon="-4.266646">
        <ele>873.389</ele>
        <time>2023-07-04T15:18:32Z</time>
      </trkpt>
      <trkpt lat="42.758297" lon="-4.268850">
        <ele>879.091</ele>
        <time>2023-07-04T15:20:54Z</time>
      </trkpt>
      <trkpt lat="42.758531" lon="-4.268981">
        <ele>878.427</ele>
        <time>2023-07-04T15:21:44Z</time>
      </trkpt>
      <trkpt lat="42.758781" lon="-4.269633">
        <ele>874.477</ele>
        <time>2023-07-04T15:22:50Z</time>
      </trkpt>
      <trkpt lat="42.758579" lon="-4.270867">
        <ele>871.769</ele>
        <time>2023-07-04T15:24:09Z</time>
      </trkpt>
      <trkpt lat="42.758600" lon="-4.271423">
        <ele>875.052</ele>
        <time>2023-07-04T15:28:18Z</time>
      </trkpt>
      <trkpt lat="42.757985" lon="-4.271309">
        <ele>878.570</ele>
        <time>2023-07-04T15:30:38Z</time>
      </trkpt>
      <trkpt lat="42.757904" lon="-4.271419">
        <ele>878.584</ele>
        <time>2023-07-04T15:30:53Z</time>
      </trkpt>
      <trkpt lat="42.758108" lon="-4.271952">
        <ele>884.595</ele>
        <time>2023-07-04T15:31:42Z</time>
      </trkpt>
      <trkpt lat="42.758544" lon="-4.272274">
        <ele>900.071</ele>
        <time>2023-07-04T15:32:34Z</time>
      </trkpt>
      <trkpt lat="42.758596" lon="-4.272652">
        <ele>910.241</ele>
        <time>2023-07-04T15:35:05Z</time>
      </trkpt>
      <trkpt lat="42.758454" lon="-4.272819">
        <ele>910.215</ele>
        <time>2023-07-04T15:35:26Z</time>
      </trkpt>
      <trkpt lat="42.757824" lon="-4.272998">
        <ele>920.209</ele>
        <time>2023-07-04T15:36:27Z</time>
      </trkpt>
      <trkpt lat="42.757295" lon="-4.273652">
        <ele>938.518</ele>
        <time>2023-07-04T15:38:23Z</time>
      </trkpt>
      <trkpt lat="42.756984" lon="-4.273731">
        <ele>944.680</ele>
        <time>2023-07-04T15:39:19Z</time>
      </trkpt>
      <trkpt lat="42.756480" lon="-4.274300">
        <ele>935.566</ele>
        <time>2023-07-04T15:40:37Z</time>
      </trkpt>
      <trkpt lat="42.756180" lon="-4.274311">
        <ele>930.536</ele>
        <time>2023-07-04T15:41:07Z</time>
      </trkpt>
      <trkpt lat="42.755966" lon="-4.274497">
        <ele>926.048</ele>
        <time>2023-07-04T15:41:30Z</time>
      </trkpt>
      <trkpt lat="42.755391" lon="-4.275671">
        <ele>930.031</ele>
        <time>2023-07-04T15:44:45Z</time>
      </trkpt>
      <trkpt lat="42.755620" lon="-4.276072">
        <ele>939.999</ele>
        <time>2023-07-04T15:46:36Z</time>
      </trkpt>
      <trkpt lat="42.755503" lon="-4.276415">
        <ele>948.483</ele>
        <time>2023-07-04T15:48:04Z</time>
      </trkpt>
      <trkpt lat="42.755155" lon="-4.276698">
        <ele>943.684</ele>
        <time>2023-07-04T15:48:43Z</time>
      </trkpt>
      <trkpt lat="42.754863" lon="-4.276682">
        <ele>939.687</ele>
        <time>2023-07-04T15:49:15Z</time>
      </trkpt>
      <trkpt lat="42.755171" lon="-4.276749">
        <ele>935.942</ele>
        <time>2023-07-04T15:50:12Z</time>
      </trkpt>
      <trkpt lat="42.755083" lon="-4.277429">
        <ele>939.926</ele>
        <time>2023-07-04T15:51:18Z</time>
      </trkpt>
      <trkpt lat="42.754373" lon="-4.278757">
        <ele>959.309</ele>
        <time>2023-07-04T15:55:10Z</time>
      </trkpt>
      <trkpt lat="42.753969" lon="-4.278780">
        <ele>965.379</ele>
        <time>2023-07-04T15:55:50Z</time>
      </trkpt>
      <trkpt lat="42.753412" lon="-4.278181">
        <ele>974.631</ele>
        <time>2023-07-04T15:57:02Z</time>
      </trkpt>
      <trkpt lat="42.752795" lon="-4.278030">
        <ele>978.237</ele>
        <time>2023-07-04T15:58:03Z</time>
      </trkpt>
      <trkpt lat="42.751732" lon="-4.277447">
        <ele>981.597</ele>
        <time>2023-07-04T15:59:46Z</time>
      </trkpt>
      <trkpt lat="42.751644" lon="-4.277225">
        <ele>981.899</ele>
        <time>2023-07-04T16:00:10Z</time>
      </trkpt>
      <trkpt lat="42.751427" lon="-4.277374">
        <ele>983.962</ele>
        <time>2023-07-04T16:01:33Z</time>
      </trkpt>
      <trkpt lat="42.751295" lon="-4.276813">
        <ele>981.720</ele>
        <time>2023-07-04T16:02:22Z</time>
      </trkpt>
      <trkpt lat="42.750950" lon="-4.276340">
        <ele>980.924</ele>
        <time>2023-07-04T16:03:17Z</time>
      </trkpt>
      <trkpt lat="42.750590" lon="-4.276780">
        <ele>980.545</ele>
        <time>2023-07-04T16:04:20Z</time>
      </trkpt>
      <trkpt lat="42.749853" lon="-4.276788">
        <ele>978.865</ele>
        <time>2023-07-04T16:05:33Z</time>
      </trkpt>
      <trkpt lat="42.748711" lon="-4.276146">
        <ele>974.568</ele>
        <time>2023-07-04T16:07:21Z</time>
      </trkpt>
      <trkpt lat="42.748287" lon="-4.275448">
        <ele>973.614</ele>
        <time>2023-07-04T16:08:31Z</time>
      </trkpt>
      <trkpt lat="42.747212" lon="-4.274836">
        <ele>972.509</ele>
        <time>2023-07-04T16:10:20Z</time>
      </trkpt>
      <trkpt lat="42.746983" lon="-4.274950">
        <ele>968.087</ele>
        <time>2023-07-04T16:12:40Z</time>
      </trkpt>
      <trkpt lat="42.747304" lon="-4.275535">
        <ele>956.149</ele>
        <time>2023-07-04T16:14:26Z</time>
      </trkpt>
      <trkpt lat="42.747004" lon="-4.275296">
        <ele>955.255</ele>
        <time>2023-07-04T16:15:50Z</time>
      </trkpt>
      <trkpt lat="42.746958" lon="-4.275796">
        <ele>937.815</ele>
        <time>2023-07-04T16:18:45Z</time>
      </trkpt>
      <trkpt lat="42.746617" lon="-4.275500">
        <ele>930.627</ele>
        <time>2023-07-04T16:20:03Z</time>
      </trkpt>
      <trkpt lat="42.746542" lon="-4.275751">
        <ele>919.920</ele>
        <time>2023-07-04T16:20:36Z</time>
      </trkpt>
      <trkpt lat="42.746438" lon="-4.275624">
        <ele>922.688</ele>
        <time>2023-07-04T16:20:53Z</time>
      </trkpt>
      <trkpt lat="42.746696" lon="-4.275949">
        <ele>923.172</ele>
        <time>2023-07-04T16:21:36Z</time>
      </trkpt>
      <trkpt lat="42.746675" lon="-4.276103">
        <ele>919.273</ele>
        <time>2023-07-04T16:21:55Z</time>
      </trkpt>
      <trkpt lat="42.746013" lon="-4.275129">
        <ele>912.565</ele>
        <time>2023-07-04T16:24:28Z</time>
      </trkpt>
      <trkpt lat="42.746470" lon="-4.275975">
        <ele>914.868</ele>
        <time>2023-07-04T16:26:36Z</time>
      </trkpt>
      <trkpt lat="42.746322" lon="-4.276043">
        <ele>912.814</ele>
        <time>2023-07-04T16:27:02Z</time>
      </trkpt>
      <trkpt lat="42.746394" lon="-4.276196">
        <ele>909.809</ele>
        <time>2023-07-04T16:27:47Z</time>
      </trkpt>
      <trkpt lat="42.746298" lon="-4.276355">
        <ele>903.437</ele>
        <time>2023-07-04T16:28:55Z</time>
      </trkpt>
      <trkpt lat="42.746135" lon="-4.276252">
        <ele>896.769</ele>
        <time>2023-07-04T16:29:56Z</time>
      </trkpt>
      <trkpt lat="42.746105" lon="-4.276356">
        <ele>896.065</ele>
        <time>2023-07-04T16:30:05Z</time>
      </trkpt>
      <trkpt lat="42.746677" lon="-4.276873">
        <ele>899.285</ele>
        <time>2023-07-04T16:31:19Z</time>
      </trkpt>
      <trkpt lat="42.746550" lon="-4.276950">
        <ele>899.647</ele>
        <time>2023-07-04T16:31:38Z</time>
      </trkpt>
      <trkpt lat="42.746046" lon="-4.276737">
        <ele>887.680</ele>
        <time>2023-07-04T16:33:01Z</time>
      </trkpt>
      <trkpt lat="42.745955" lon="-4.277208">
        <ele>880.138</ele>
        <time>2023-07-04T16:34:25Z</time>
      </trkpt>
      <trkpt lat="42.745654" lon="-4.277468">
        <ele>881.592</ele>
        <time>2023-07-04T16:37:20Z</time>
      </trkpt>
      <trkpt lat="42.744690" lon="-4.279004">
        <ele>881.273</ele>
        <time>2023-07-04T16:39:33Z</time>
      </trkpt>
      <trkpt lat="42.744353" lon="-4.280008">
        <ele>872.941</ele>
        <time>2023-07-04T16:40:30Z</time>
      </trkpt>
      <trkpt lat="42.743789" lon="-4.281006">
        <ele>872.981</ele>
        <time>2023-07-04T16:41:38Z</time>
      </trkpt>
      <trkpt lat="42.743742" lon="-4.281334">
        <ele>874.009</ele>
        <time>2023-07-04T16:41:58Z</time>
      </trkpt>
      <trkpt lat="42.742728" lon="-4.283031">
        <ele>876.209</ele>
        <time>2023-07-04T16:44:02Z</time>
      </trkpt>
      <trkpt lat="42.742667" lon="-4.283774">
        <ele>870.825</ele>
        <time>2023-07-04T16:44:50Z</time>
      </trkpt>
      <trkpt lat="42.741376" lon="-4.282308">
        <ele>871.937</ele>
        <time>2023-07-04T16:46:56Z</time>
      </trkpt>
      <trkpt lat="42.739992" lon="-4.277907">
        <ele>872.063</ele>
        <time>2023-07-04T16:51:04Z</time>
      </trkpt>
      <trkpt lat="42.738726" lon="-4.276001">
        <ele>877.393</ele>
        <time>2023-07-04T16:53:18Z</time>
      </trkpt>
      <trkpt lat="42.738222" lon="-4.274833">
        <ele>877.875</ele>
        <time>2023-07-04T16:54:34Z</time>
      </trkpt>
      <trkpt lat="42.737394" lon="-4.274436">
        <ele>880.128</ele>
        <time>2023-07-04T16:55:46Z</time>
      </trkpt>
      <trkpt lat="42.737353" lon="-4.274200">
        <ele>881.586</ele>
        <time>2023-07-04T16:58:18Z</time>
      </trkpt>
    </trkseg>
  </trk></gpx>